Pagrindinis puslapis
METAR-TAF:

METAR-TAF

Oro uostai :

Vyner Noištatas, Austrija

platuma: 47-50-36N, ilguma: 016-15-29E, Aukštis: 272 m

Dabartinis oras

Ataskaita buvo paskelbta 24 minutes, ne 07:00 UTC
Vėjas 4 kt iš Rytų
Temperatūra
Slėgis

METAR: LOAN 070700Z 08004KT 25KM FEW025CU SCT300CI

Laikas: 09:24 (07:24 UTC)

Prognozė

Ataskaita buvo paskelbta 19 valandos ir 59 minutes, ne 11:25 UTC
Prognozė galioja nuo 06 metu 12 UTC su 06 metu 21 UTC
Vėjas 12 kt iš Pietų/Pietryčių
Matomumas 10 km arba daugiau
Mažai debesys ne aukštis 4000 ft
Laikinai
nuo 06 metu 12 UTC su 06 metu 16 UTC
Vėjas 15 kt iš Pietų su gūsio iki 25 kt
Laikinai
nuo 06 metu 15 UTC su 06 metu 20 UTC
Mažai debesys ne aukštis 5000 ft, Liūtiniai kamuoliniai debesys.

TAF: LOAN 061125Z 0612/0621 15012KT 9999 FEW040 TEMPO 0612/0616 17015G25KT TEMPO 0615/0620 FEW050CB

Orai ataskaitas ir orų prognozės (METAR, TAF).

turimą stotys yra geltonos ir raudonos taškus žemėlapyje.

Perkelti pele per norėdami pamatyti stoties vardą.

Tada spustelėkite, norėdami matyti oro stebėjimo ir prognozės.

Norėdami pakeisti žemėlapį: spustelėkite ant žalios mygtukų su juodo kryžiaus žemyn,; žalią mygtuką su brūkšneliu, jei norite nutolinti; arba žalių rodyklių gretimoms žemėlapius.


METAR-TAF: